Reeve, Indiana
Current Conditions -  °F | °C
As of 6:55 PM on Monday 24 Nov 2014 (Local Time) from KDCY Reporting Station
Overcast Overcast  
Wind Chill: 34°   Ceiling: 6500
Heat Index: 40°   Visibility: 10mi
Dew Point: 32°   Wind: 8mph
Humidity: 74%   Direction: 270°W
Pressure: 29.92"   Gusts: NA
Location:  38.6074°N, 86.9234°W
Report Text: KDCY 250055Z AUTO 27007KT 10SM OVC065 04/00 A2992 RMK AO2 T00430000
Loading
Personal Weather Stations






























Interactive Weather Map New forecast layout! Learn more

10-Day Weather Forecast

Advertisements
Track Severe Weather on mobile